Big Rapids, Michigan
Current Conditions -  °F | °C
As of 11:35 AM on Monday 24 Nov 2014 (Local Time) from KRQB Reporting Station
Haze Haze  
Wind Chill: 47°   Ceiling: 600
Heat Index: 47°   Visibility: 4mi
Dew Point: 47°   Wind: 3mph
Humidity: 99%   Direction: 220°SW
Pressure: 29.03"   Gusts: NA
Location:  43.7°N, 85.48°W
Report Text: KRQB 241635Z AUTO 22003KT 4SM BR OVC006 09/08 A2903 RMK AO2 T00850083
Loading
Personal Weather Stations






























Interactive Weather Map New forecast layout! Learn more

10-Day Weather Forecast

Advertisements
Track Severe Weather on mobile